Time;durP1;ratioP1;P1;durP2;ratioP2;P2;SDS_P1;SDS_P2;PMS_P1;PMS_P2;Temp;Humidity;BMP_temperature;BMP_pressure;BME280_temperature;BME280_humidity;BME280_pressure;Samples;Min_cycle;Max_cycle;Signal;HPM_P1;HPM_P2
2022/04/28 00:02:12;;;;;;;18.63;13.60;;;;;;;;;;5048323;28;20406;-83
2022/04/28 00:04:39;;;;;;;20.27;14.87;;;;;;;;;;5048717;28;20439;-86
2022/04/28 00:07:05;;;;;;;17.67;14.17;;;;;;;;;;5048456;28;20452;-86
2022/04/28 00:09:31;;;;;;;24.63;17.33;;;;;;;;;;5048480;28;20406;-85
2022/04/28 00:11:57;;;;;;;19.67;14.60;;;;;;;;;;5047420;28;20406;-85
2022/04/28 00:14:23;;;;;;;20.23;15.50;;;;;;;;;;5047936;28;20422;-87
2022/04/28 00:16:49;;;;;;;18.60;14.90;;;;;;;;;;5047452;28;20465;-87
2022/04/28 00:19:15;;;;;;;19.40;15.00;;;;;;;;;;5048383;28;20489;-85
2022/04/28 00:21:41;;;;;;;22.40;15.30;;;;;;;;;;5030186;28;20415;-87
2022/04/28 00:24:07;;;;;;;20.87;15.47;;;;;;;;;;5047202;28;20394;-85
2022/04/28 00:26:33;;;;;;;18.20;14.87;;;;;;;;;;5047634;28;20430;-85
2022/04/28 00:29:00;;;;;;;20.50;14.87;;;;;;;;;;5047873;28;20402;-85
2022/04/28 00:31:26;;;;;;;20.57;14.40;;;;;;;;;;5047820;28;20419;-86
2022/04/28 00:33:52;;;;;;;20.70;16.27;;;;;;;;;;5053425;28;20402;-83
2022/04/28 00:36:18;;;;;;;20.07;16.30;;;;;;;;;;5059315;28;20553;-87
2022/04/28 00:38:44;;;;;;;22.20;16.53;;;;;;;;;;5047359;28;20410;-87
2022/04/28 00:41:10;;;;;;;19.23;14.27;;;;;;;;;;5047223;28;20503;-86
2022/04/28 00:43:51;;;;;;;23.80;16.10;;;;;;;;;;5029131;28;20419;-86
2022/04/28 00:46:17;;;;;;;20.37;15.50;;;;;;;;;;5029477;28;20494;-86
2022/04/28 00:51:29;;;;;;;20.43;15.00;;;;;;;;;;5047141;28;20383;-86
2022/04/28 00:53:56;;;;;;;21.67;15.37;;;;;;;;;;5046837;28;20436;-86
2022/04/28 00:56:22;;;;;;;20.63;15.17;;;;;;;;;;5029086;28;20528;-88
2022/04/28 00:58:49;;;;;;;19.77;16.00;;;;;;;;;;5046912;28;20418;-86
2022/04/28 01:01:16;;;;;;;20.77;15.30;;;;;;;;;;5049874;28;20405;-85
2022/04/28 01:03:42;;;;;;;20.80;14.83;;;;;;;;;;5053613;28;20402;-85
2022/04/28 01:06:08;;;;;;;23.00;14.07;;;;;;;;;;5076870;22;20457;-84
2022/04/28 01:08:34;;;;;;;20.50;15.90;;;;;;;;;;5059613;28;20437;-85
2022/04/28 01:11:01;;;;;;;20.03;15.20;;;;;;;;;;5043110;28;20437;-85
2022/04/28 01:13:28;;;;;;;19.53;14.40;;;;;;;;;;5043257;28;20425;-85
2022/04/28 01:15:54;;;;;;;24.13;16.30;;;;;;;;;;5042750;28;20449;-85
2022/04/28 01:18:20;;;;;;;20.43;15.40;;;;;;;;;;5042582;28;20483;-85
2022/04/28 01:20:46;;;;;;;20.30;15.50;;;;;;;;;;5043712;28;20412;-86
2022/04/28 01:23:13;;;;;;;18.90;15.47;;;;;;;;;;5059641;28;20393;-86
2022/04/28 01:25:39;;;;;;;19.00;15.17;;;;;;;;;;5060501;28;20433;-85
2022/04/28 01:28:05;;;;;;;23.00;15.00;;;;;;;;;;5042806;28;20429;-84
2022/04/28 01:30:31;;;;;;;23.10;16.07;;;;;;;;;;5060291;28;20502;-85
2022/04/28 01:32:58;;;;;;;21.50;16.20;;;;;;;;;;5060468;28;20956;-85
2022/04/28 01:35:24;;;;;;;22.97;17.00;;;;;;;;;;5061593;28;20448;-85
2022/04/28 01:37:52;;;;;;;23.30;15.27;;;;;;;;;;5063089;28;20455;-85
2022/04/28 01:40:18;;;;;;;18.97;15.17;;;;;;;;;;5065637;28;20499;-84
2022/04/28 01:42:45;;;;;;;23.90;14.90;;;;;;;;;;5072961;28;20436;-84
2022/04/28 01:45:11;;;;;;;20.60;15.07;;;;;;;;;;5056193;28;20418;-86
2022/04/28 01:47:41;;;;;;;21.57;15.10;;;;;;;;;;5072180;28;20422;-85
2022/04/28 01:50:08;;;;;;;19.90;15.67;;;;;;;;;;5064574;28;20421;-84
2022/04/28 01:55:18;;;;;;;18.43;14.50;;;;;;;;;;5064090;28;20513;-85
2022/04/28 01:57:46;;;;;;;18.87;13.87;;;;;;;;;;5062945;28;20471;-86
2022/04/28 02:00:12;;;;;;;22.50;13.83;;;;;;;;;;5063530;28;20440;-85
2022/04/28 02:02:38;;;;;;;19.43;14.47;;;;;;;;;;5045483;28;20402;-85
2022/04/28 02:05:05;;;;;;;22.97;15.20;;;;;;;;;;5063900;28;20782;-86
2022/04/28 02:07:31;;;;;;;18.80;15.00;;;;;;;;;;5062935;28;20441;-86
2022/04/28 02:09:58;;;;;;;19.53;15.00;;;;;;;;;;5061739;28;20410;-86
2022/04/28 02:12:25;;;;;;;18.40;13.70;;;;;;;;;;5062821;28;20481;-84
2022/04/28 02:14:52;;;;;;;20.13;15.20;;;;;;;;;;5061442;28;20454;-85
2022/04/28 02:17:18;;;;;;;24.90;16.27;;;;;;;;;;5062421;28;20429;-85
2022/04/28 02:19:44;;;;;;;19.63;14.00;;;;;;;;;;5052539;28;20456;-86
2022/04/28 02:22:11;;;;;;;20.07;14.90;;;;;;;;;;5058385;28;20768;-85
2022/04/28 02:24:37;;;;;;;21.67;14.67;;;;;;;;;;5038212;28;20493;-84
2022/04/28 02:27:03;;;;;;;23.37;14.80;;;;;;;;;;5054901;28;20507;-84
2022/04/28 02:29:29;;;;;;;22.10;15.90;;;;;;;;;;5055199;28;20402;-85
2022/04/28 02:31:55;;;;;;;18.73;14.80;;;;;;;;;;5056856;28;20492;-85
2022/04/28 02:34:21;;;;;;;21.60;15.03;;;;;;;;;;5038041;28;20409;-85
2022/04/28 02:36:47;;;;;;;18.83;14.80;;;;;;;;;;5061676;28;20551;-86
2022/04/28 02:39:14;;;;;;;21.50;15.20;;;;;;;;;;5061959;28;20408;-85
2022/04/28 02:41:41;;;;;;;20.00;15.03;;;;;;;;;;5062958;28;20405;-85
2022/04/28 02:44:07;;;;;;;22.83;16.07;;;;;;;;;;5054483;28;20464;-86
2022/04/28 02:46:33;;;;;;;25.53;17.80;;;;;;;;;;5033439;28;20445;-85
2022/04/28 02:48:59;;;;;;;22.10;15.50;;;;;;;;;;5006717;28;20791;-84
2022/04/28 02:51:26;;;;;;;25.53;16.97;;;;;;;;;;5019408;28;20433;-86
2022/04/28 02:53:52;;;;;;;24.83;16.50;;;;;;;;;;5030637;28;20466;-86
2022/04/28 02:56:18;;;;;;;22.10;15.77;;;;;;;;;;5028532;28;20467;-86
2022/04/28 02:58:45;;;;;;;22.67;16.40;;;;;;;;;;5031029;28;20414;-85
2022/04/28 03:01:11;;;;;;;25.13;17.03;;;;;;;;;;5014715;28;20512;-85
2022/04/28 03:03:38;;;;;;;25.33;16.93;;;;;;;;;;5027756;28;20419;-86
2022/04/28 03:11:44;;;;;;;26.40;18.53;;;;;;;;;;5025647;28;20387;-85
2022/04/28 03:14:12;;;;;;;24.20;17.17;;;;;;;;;;5025448;28;20399;-84
2022/04/28 03:16:38;;;;;;;24.30;17.53;;;;;;;;;;5025122;28;20503;-86
2022/04/28 03:19:04;;;;;;;29.17;17.20;;;;;;;;;;5024692;28;20823;-85
2022/04/28 03:21:30;;;;;;;26.93;17.73;;;;;;;;;;5008019;28;20407;-86
2022/04/28 03:23:57;;;;;;;25.10;17.60;;;;;;;;;;5008172;28;20419;-85
2022/04/28 03:26:23;;;;;;;26.40;16.90;;;;;;;;;;5024203;28;20427;-85
2022/04/28 03:28:49;;;;;;;25.93;17.50;;;;;;;;;;5024329;28;20489;-84
2022/04/28 03:31:15;;;;;;;26.53;16.87;;;;;;;;;;5031384;28;20438;-86
2022/04/28 03:33:41;;;;;;;26.80;17.83;;;;;;;;;;5041737;28;20449;-85
2022/04/28 03:38:52;;;;;;;25.60;18.00;;;;;;;;;;5049360;28;20478;-86
2022/04/28 03:41:18;;;;;;;27.97;19.90;;;;;;;;;;5028752;28;20426;-86
2022/04/28 03:43:47;;;;;;;25.97;17.90;;;;;;;;;;5045703;28;20477;-86
2022/04/28 03:46:15;;;;;;;24.10;16.80;;;;;;;;;;5044310;28;20446;-86
2022/04/28 03:48:41;;;;;;;26.67;18.17;;;;;;;;;;5044371;28;20415;-86
2022/04/28 03:51:07;;;;;;;26.40;19.73;;;;;;;;;;5044793;28;20402;-86
2022/04/28 03:53:33;;;;;;;27.47;19.03;;;;;;;;;;5026101;28;20438;-85
2022/04/28 03:55:59;;;;;;;27.63;19.47;;;;;;;;;;5044780;28;20442;-83
2022/04/28 03:58:26;;;;;;;28.60;20.60;;;;;;;;;;5043643;28;20411;-86
2022/04/28 04:00:53;;;;;;;24.80;18.63;;;;;;;;;;5025924;28;20461;-86
2022/04/28 04:03:20;;;;;;;26.23;17.10;;;;;;;;;;5043180;28;20914;-85
2022/04/28 04:05:47;;;;;;;30.37;19.53;;;;;;;;;;5043454;28;20418;-86
2022/04/28 04:08:13;;;;;;;25.87;18.70;;;;;;;;;;5044227;28;20442;-83
2022/04/28 04:10:39;;;;;;;27.70;19.40;;;;;;;;;;5043374;28;20417;-86
2022/04/28 04:13:05;;;;;;;26.97;19.53;;;;;;;;;;5043904;28;20430;-85
2022/04/28 04:15:32;;;;;;;29.37;19.40;;;;;;;;;;5042916;28;20605;-85
2022/04/28 04:17:58;;;;;;;28.40;19.73;;;;;;;;;;5042825;28;20422;-83
2022/04/28 04:20:25;;;;;;;29.37;19.30;;;;;;;;;;5026179;28;20892;-85
2022/04/28 04:22:52;;;;;;;28.70;20.17;;;;;;;;;;5042557;28;20440;-86
2022/04/28 04:25:19;;;;;;;28.57;19.73;;;;;;;;;;5042507;28;20414;-86
2022/04/28 04:27:45;;;;;;;25.73;18.03;;;;;;;;;;5041390;28;20505;-86
2022/04/28 04:32:56;;;;;;;23.80;18.40;;;;;;;;;;5041570;28;20402;-86
2022/04/28 04:35:23;;;;;;;26.57;19.07;;;;;;;;;;5041304;28;20446;-86
2022/04/28 04:37:50;;;;;;;33.53;21.70;;;;;;;;;;5041348;28;20430;-86
2022/04/28 04:40:16;;;;;;;22.33;16.20;;;;;;;;;;5023882;28;20429;-86
2022/04/28 04:42:42;;;;;;;27.43;18.00;;;;;;;;;;5042791;28;20526;-86
2022/04/28 04:45:09;;;;;;;28.00;19.27;;;;;;;;;;5042033;28;20418;-86
2022/04/28 04:47:36;;;;;;;25.90;18.57;;;;;;;;;;5042802;28;20430;-86
2022/04/28 04:50:02;;;;;;;23.80;17.60;;;;;;;;;;5026747;28;20417;-86
2022/04/28 04:52:28;;;;;;;19.77;16.10;;;;;;;;;;5025187;28;20425;-86
2022/04/28 04:54:57;;;;;;;21.50;16.43;;;;;;;;;;5024861;28;20986;-86
2022/04/28 04:57:24;;;;;;;21.47;16.00;;;;;;;;;;5042953;28;20437;-85
2022/04/28 04:59:50;;;;;;;21.97;15.80;;;;;;;;;;5042063;28;20419;-85
2022/04/28 05:02:16;;;;;;;24.70;16.80;;;;;;;;;;5042970;28;20406;-84
2022/04/28 05:04:42;;;;;;;23.17;14.80;;;;;;;;;;5024394;28;20415;-85
2022/04/28 05:07:09;;;;;;;31.73;16.83;;;;;;;;;;5042239;28;20954;-85
2022/04/28 05:09:37;;;;;;;26.10;17.90;;;;;;;;;;5041653;28;20417;-83
2022/04/28 05:12:03;;;;;;;23.80;17.67;;;;;;;;;;5041483;28;20540;-84
2022/04/28 05:14:29;;;;;;;25.10;17.40;;;;;;;;;;5042636;28;20413;-85
2022/04/28 05:16:57;;;;;;;26.43;19.43;;;;;;;;;;5046089;28;20450;-85
2022/04/28 05:19:24;;;;;;;26.17;18.17;;;;;;;;;;5052594;28;20383;-84
2022/04/28 05:21:50;;;;;;;29.13;19.10;;;;;;;;;;5044424;28;20517;-85
2022/04/28 05:24:16;;;;;;;27.50;18.20;;;;;;;;;;5047996;28;20754;-84
2022/04/28 05:26:42;;;;;;;26.00;18.20;;;;;;;;;;5057555;28;20430;-84
2022/04/28 05:29:08;;;;;;;24.50;19.20;;;;;;;;;;5054845;28;20418;-86
2022/04/28 05:31:34;;;;;;;29.00;20.30;;;;;;;;;;5047350;28;20883;-86
2022/04/28 05:34:00;;;;;;;31.77;20.57;;;;;;;;;;5027098;28;20417;-85
2022/04/28 05:36:28;;;;;;;37.10;19.93;;;;;;;;;;5043777;28;20504;-85
2022/04/28 05:38:54;;;;;;;26.77;18.23;;;;;;;;;;5042876;28;20411;-85
2022/04/28 05:41:21;;;;;;;26.97;19.77;;;;;;;;;;5046153;28;20433;-83
2022/04/28 05:46:32;;;;;;;24.80;19.00;;;;;;;;;;5036863;28;20429;-84
2022/04/28 05:48:58;;;;;;;26.90;21.30;;;;;;;;;;5022961;28;20492;-85
2022/04/28 05:51:24;;;;;;;25.80;18.87;;;;;;;;;;5039804;28;20399;-84
2022/04/28 05:53:50;;;;;;;28.50;18.70;;;;;;;;;;5039727;28;20395;-83
2022/04/28 05:56:16;;;;;;;31.20;20.03;;;;;;;;;;5040553;28;20457;-85
2022/04/28 05:58:44;;;;;;;25.97;18.33;;;;;;;;;;5041840;28;20402;-85
2022/04/28 06:01:10;;;;;;;24.73;19.67;;;;;;;;;;5052857;28;20485;-85
2022/04/28 06:03:36;;;;;;;25.03;18.57;;;;;;;;;;5051410;28;20395;-86
2022/04/28 06:06:02;;;;;;;26.33;17.67;;;;;;;;;;5046160;28;20405;-86
2022/04/28 06:08:28;;;;;;;22.77;18.30;;;;;;;;;;5044548;28;20402;-85
2022/04/28 06:10:57;;;;;;;25.30;19.80;;;;;;;;;;5047123;28;20395;-84
2022/04/28 06:13:23;;;;;;;22.93;17.50;;;;;;;;;;5052376;28;20399;-85
2022/04/28 06:15:49;;;;;;;23.50;17.20;;;;;;;;;;5025270;28;20457;-85
2022/04/28 06:18:15;;;;;;;25.23;17.33;;;;;;;;;;5021946;28;20482;-85
2022/04/28 06:20:41;;;;;;;27.03;17.07;;;;;;;;;;5040344;28;20399;-84
2022/04/28 06:23:07;;;;;;;25.73;17.90;;;;;;;;;;5039288;28;20434;-85
2022/04/28 06:25:33;;;;;;;22.70;16.00;;;;;;;;;;5024099;28;20867;-85
2022/04/28 06:28:00;;;;;;;16.50;14.27;;;;;;;;;;5040124;28;20426;-83
2022/04/28 06:30:26;;;;;;;16.57;14.50;;;;;;;;;;5049963;28;20406;-86
2022/04/28 06:32:52;;;;;;;17.33;14.47;;;;;;;;;;5045631;28;20407;-87
2022/04/28 06:35:18;;;;;;;22.03;16.30;;;;;;;;;;5025866;28;20454;-85
2022/04/28 06:37:44;;;;;;;19.20;15.20;;;;;;;;;;5044503;28;20491;-85
2022/04/28 06:40:12;;;;;;;16.43;14.07;;;;;;;;;;5044174;28;20434;-86
2022/04/28 06:42:41;;;;;;;19.10;14.60;;;;;;;;;;5047094;28;20428;-85
2022/04/28 06:45:08;;;;;;;19.67;14.10;;;;;;;;;;5044018;28;20930;-85
2022/04/28 06:47:34;;;;;;;15.13;13.13;;;;;;;;;;5044566;28;20442;-85
2022/04/28 06:50:00;;;;;;;18.83;15.27;;;;;;;;;;5044523;28;20438;-86
2022/04/28 06:52:26;;;;;;;17.03;13.10;;;;;;;;;;5027192;28;20418;-85
2022/04/28 06:54:52;;;;;;;16.77;13.63;;;;;;;;;;5029966;28;20473;-85
2022/04/28 06:57:19;;;;;;;18.03;13.60;;;;;;;;;;5027203;28;20439;-84
2022/04/28 06:59:45;;;;;;;15.10;13.10;;;;;;;;;;5042624;28;20406;-86
2022/04/28 07:02:11;;;;;;;15.10;12.67;;;;;;;;;;5025101;28;20415;-86
2022/04/28 07:04:37;;;;;;;15.47;13.70;;;;;;;;;;5043306;28;20497;-85
2022/04/28 07:07:03;;;;;;;12.87;11.47;;;;;;;;;;5035213;22;20986;-84
2022/04/28 07:09:29;;;;;;;13.00;11.47;;;;;;;;;;5021967;28;20434;-86
2022/04/28 07:11:56;;;;;;;13.87;10.50;;;;;;;;;;5027500;28;20419;-86
2022/04/28 07:14:22;;;;;;;17.10;11.40;;;;;;;;;;5027197;28;20396;-86
2022/04/28 07:16:48;;;;;;;12.87;10.00;;;;;;;;;;5027665;28;20501;-86
2022/04/28 07:19:14;;;;;;;13.30;10.70;;;;;;;;;;5027679;28;20408;-86
2022/04/28 07:21:40;;;;;;;14.20;9.87;;;;;;;;;;5009193;28;20411;-86
2022/04/28 07:24:06;;;;;;;12.40;9.67;;;;;;;;;;5030479;28;20533;-87
2022/04/28 07:26:32;;;;;;;12.40;9.03;;;;;;;;;;5031801;28;20407;-86
2022/04/28 07:28:58;;;;;;;16.03;10.60;;;;;;;;;;5033963;28;20407;-85
2022/04/28 07:31:25;;;;;;;10.47;9.10;;;;;;;;;;5032331;28;20437;-86
2022/04/28 07:33:51;;;;;;;12.30;9.10;;;;;;;;;;5030974;28;20419;-86
2022/04/28 07:36:17;;;;;;;13.60;7.90;;;;;;;;;;5018279;28;20478;-85
2022/04/28 07:38:43;;;;;;;11.60;8.10;;;;;;;;;;5021583;28;20501;-86
2022/04/28 07:41:10;;;;;;;13.27;9.20;;;;;;;;;;5033967;28;20427;-86
2022/04/28 07:43:36;;;;;;;24.13;9.93;;;;;;;;;;5030656;28;20419;-85
2022/04/28 07:46:02;;;;;;;11.77;9.30;;;;;;;;;;5031148;28;20601;-86
2022/04/28 07:48:28;;;;;;;10.57;7.53;;;;;;;;;;5030759;28;20427;-87
2022/04/28 07:50:54;;;;;;;8.00;7.23;;;;;;;;;;5030470;28;20562;-86
2022/04/28 07:53:21;;;;;;;10.90;8.00;;;;;;;;;;5030946;28;20395;-86
2022/04/28 07:58:32;;;;;;;10.00;7.53;;;;;;;;;;5029918;28;20419;-85
2022/04/28 08:00:59;;;;;;;8.33;7.10;;;;;;;;;;5030251;28;20407;-85
2022/04/28 08:03:25;;;;;;;11.43;7.17;;;;;;;;;;5030408;28;20398;-85
2022/04/28 08:05:52;;;;;;;8.37;7.50;;;;;;;;;;5030169;28;20480;-84
2022/04/28 08:08:18;;;;;;;9.43;7.23;;;;;;;;;;5022634;28;20517;-85
2022/04/28 08:10:44;;;;;;;8.37;7.07;;;;;;;;;;5004599;28;20506;-85
2022/04/28 08:13:10;;;;;;;11.50;7.20;;;;;;;;;;5023710;28;20418;-86
2022/04/28 08:15:36;;;;;;;11.47;8.43;;;;;;;;;;5024848;28;20462;-86
2022/04/28 08:18:02;;;;;;;9.40;7.60;;;;;;;;;;5027228;28;21030;-84
2022/04/28 08:20:28;;;;;;;12.07;8.33;;;;;;;;;;5028448;28;20427;-86
2022/04/28 08:22:54;;;;;;;10.27;6.87;;;;;;;;;;5028666;28;20923;-85
2022/04/28 08:25:20;;;;;;;8.97;6.83;;;;;;;;;;5029459;28;20403;-85
2022/04/28 08:27:46;;;;;;;8.90;6.37;;;;;;;;;;5028465;28;20431;-85
2022/04/28 08:30:12;;;;;;;8.73;7.80;;;;;;;;;;5026524;28;20435;-84
2022/04/28 08:32:38;;;;;;;7.30;6.50;;;;;;;;;;5023200;28;21037;-84
2022/04/28 08:35:04;;;;;;;7.50;6.40;;;;;;;;;;5026987;28;20412;-84
2022/04/28 08:37:30;;;;;;;6.80;5.93;;;;;;;;;;5029795;28;20458;-85
2022/04/28 08:39:57;;;;;;;13.13;6.90;;;;;;;;;;5029791;28;20429;-85
2022/04/28 08:42:23;;;;;;;9.67;6.73;;;;;;;;;;5011956;28;20419;-86
2022/04/28 08:44:52;;;;;;;7.40;6.50;;;;;;;;;;5030111;28;20399;-85
2022/04/28 08:47:18;;;;;;;8.30;6.33;;;;;;;;;;5028792;28;20532;-85
2022/04/28 08:49:46;;;;;;;7.03;6.33;;;;;;;;;;5029360;28;20923;-85
2022/04/28 08:52:14;;;;;;;8.40;6.37;;;;;;;;;;5034179;28;20803;-84
2022/04/28 08:54:40;;;;;;;7.77;6.97;;;;;;;;;;5034534;28;20387;-84
2022/04/28 08:57:06;;;;;;;11.53;7.33;;;;;;;;;;5017666;28;20455;-85
2022/04/28 08:59:32;;;;;;;15.67;8.07;;;;;;;;;;5035385;28;20414;-85
2022/04/28 09:01:58;;;;;;;9.50;6.90;;;;;;;;;;5033130;28;20404;-85
2022/04/28 09:04:25;;;;;;;9.70;7.53;;;;;;;;;;5031190;28;20408;-85
2022/04/28 09:06:52;;;;;;;7.00;6.30;;;;;;;;;;5029955;28;20431;-85
2022/04/28 09:09:18;;;;;;;9.50;6.37;;;;;;;;;;5028884;28;20525;-86
2022/04/28 09:11:45;;;;;;;7.70;6.60;;;;;;;;;;5028737;28;20408;-86
2022/04/28 09:14:14;;;;;;;7.00;5.13;;;;;;;;;;5029677;28;20410;-86
2022/04/28 09:16:56;;;;;;;7.03;5.20;;;;;;;;;;5029384;28;20466;-86
2022/04/28 09:19:23;;;;;;;7.63;5.50;;;;;;;;;;5011496;28;20423;-85
2022/04/28 09:21:53;;;;;;;6.60;5.03;;;;;;;;;;5028962;28;20407;-87
2022/04/28 09:24:20;;;;;;;8.10;5.10;;;;;;;;;;5028922;28;20411;-85
2022/04/28 09:26:47;;;;;;;6.50;5.63;;;;;;;;;;5029313;28;20469;-86
2022/04/28 09:29:14;;;;;;;5.90;5.17;;;;;;;;;;5029673;28;20408;-85
2022/04/28 09:31:41;;;;;;;5.13;4.63;;;;;;;;;;5038699;28;20494;-83
2022/04/28 09:34:08;;;;;;;6.20;4.63;;;;;;;;;;5033669;28;20411;-87
2022/04/28 09:36:34;;;;;;;6.60;5.17;;;;;;;;;;5012303;28;20462;-85
2022/04/28 09:39:00;;;;;;;10.93;5.57;;;;;;;;;;5029675;28;20531;-85
2022/04/28 09:44:12;;;;;;;5.83;4.73;;;;;;;;;;5028708;28;20387;-87
2022/04/28 09:46:45;;;;;;;6.53;4.93;;;;;;;;;;5013392;28;20414;-86
2022/04/28 09:49:19;;;;;;;4.83;3.83;;;;;;;;;;5011564;28;20415;-85
2022/04/28 09:51:46;;;;;;;6.10;4.80;;;;;;;;;;5028179;28;20379;-86
2022/04/28 09:54:17;;;;;;;4.53;3.93;;;;;;;;;;5026682;28;20572;-85
2022/04/28 09:56:44;;;;;;;6.20;4.57;;;;;;;;;;5027455;28;20543;-85
2022/04/28 09:59:13;;;;;;;9.40;5.07;;;;;;;;;;5010048;28;20412;-86
2022/04/28 10:01:40;;;;;;;8.30;7.33;;;;;;;;;;5024255;28;20426;-87
2022/04/28 10:04:07;;;;;;;7.23;5.63;;;;;;;;;;5020256;28;20475;-85
2022/04/28 10:06:38;;;;;;;7.40;5.93;;;;;;;;;;5019251;28;20515;-84
2022/04/28 10:09:12;;;;;;;9.50;7.63;;;;;;;;;;5018856;28;20435;-85
2022/04/28 10:11:38;;;;;;;10.57;7.80;;;;;;;;;;5019158;28;20840;-86
2022/04/28 10:14:06;;;;;;;7.90;6.23;;;;;;;;;;5019857;28;20404;-85
2022/04/28 10:16:33;;;;;;;8.50;5.93;;;;;;;;;;5020092;28;20858;-84
2022/04/28 10:19:00;;;;;;;12.13;6.60;;;;;;;;;;5021059;28;20412;-85
2022/04/28 10:21:42;;;;;;;9.17;6.80;;;;;;;;;;5020546;28;20406;-86
2022/04/28 10:32:47;;;;;;;7.50;5.80;;;;;;;;;;5023906;28;20395;-86
2022/04/28 10:35:14;;;;;;;8.37;6.80;;;;;;;;;;5023201;28;20438;-86
2022/04/28 10:37:41;;;;;;;10.60;6.60;;;;;;;;;;5023174;28;20427;-85
2022/04/28 10:40:12;;;;;;;6.70;6.00;;;;;;;;;;5023098;28;20396;-85
2022/04/28 10:42:38;;;;;;;5.90;4.80;;;;;;;;;;5024383;28;20398;-85
2022/04/28 10:45:18;;;;;;;8.47;5.47;;;;;;;;;;5024746;28;20442;-86
2022/04/28 10:47:44;;;;;;;7.97;6.17;;;;;;;;;;5025414;28;20418;-86
2022/04/28 10:50:23;;;;;;;6.87;5.73;;;;;;;;;;5025962;28;20406;-86
2022/04/28 10:52:55;;;;;;;6.70;6.00;;;;;;;;;;5006805;28;20403;-86
2022/04/28 10:55:23;;;;;;;8.07;5.67;;;;;;;;;;5024430;28;20478;-86
2022/04/28 10:57:50;;;;;;;10.10;5.27;;;;;;;;;;5010145;28;20509;-84
2022/04/28 11:00:36;;;;;;;7.00;5.20;;;;;;;;;;5027996;28;20403;-86
2022/04/28 11:03:02;;;;;;;9.53;5.80;;;;;;;;;;5028276;28;20911;-86
2022/04/28 11:05:30;;;;;;;18.10;5.50;;;;;;;;;;5029108;28;20415;-86
2022/04/28 11:07:58;;;;;;;6.50;5.57;;;;;;;;;;5029121;28;20449;-86
2022/04/28 11:10:24;;;;;;;12.50;6.50;;;;;;;;;;5027602;28;20506;-86
2022/04/28 11:12:50;;;;;;;6.73;5.77;;;;;;;;;;5026993;28;20465;-85
2022/04/28 11:15:17;;;;;;;8.40;5.87;;;;;;;;;;5007825;28;20450;-85
2022/04/28 11:17:44;;;;;;;8.03;6.10;;;;;;;;;;5025082;28;20431;-86
2022/04/28 11:20:13;;;;;;;6.87;5.00;;;;;;;;;;5026805;28;20403;-85
2022/04/28 11:22:47;;;;;;;9.40;4.80;;;;;;;;;;5025522;28;20764;-87
2022/04/28 11:25:14;;;;;;;7.60;5.13;;;;;;;;;;5027330;28;20405;-86
2022/04/28 11:27:40;;;;;;;5.83;4.60;;;;;;;;;;5026854;28;20434;-86
2022/04/28 11:30:09;;;;;;;5.70;4.43;;;;;;;;;;5027354;28;20431;-87
2022/04/28 11:32:36;;;;;;;6.13;4.23;;;;;;;;;;5025971;28;20410;-86
2022/04/28 11:35:02;;;;;;;8.33;4.80;;;;;;;;;;5026209;28;20403;-86
2022/04/28 11:37:28;;;;;;;6.83;5.40;;;;;;;;;;5008503;28;20443;-87
2022/04/28 11:39:55;;;;;;;5.60;4.30;;;;;;;;;;5026265;28;20403;-86
2022/04/28 11:42:24;;;;;;;4.90;4.00;;;;;;;;;;5026303;28;20408;-87
2022/04/28 11:44:55;;;;;;;5.60;4.40;;;;;;;;;;5026597;28;20404;-86
2022/04/28 11:47:22;;;;;;;15.73;5.57;;;;;;;;;;5027188;28;20434;-87
2022/04/28 11:49:51;;;;;;;5.57;4.97;;;;;;;;;;5026470;28;20404;-87
2022/04/28 11:52:19;;;;;;;5.77;4.60;;;;;;;;;;5026792;28;20430;-85
2022/04/28 11:54:45;;;;;;;7.80;5.40;;;;;;;;;;5023699;28;20523;-86
2022/04/28 11:57:12;;;;;;;4.33;3.80;;;;;;;;;;5020764;28;20872;-85
2022/04/28 11:59:39;;;;;;;7.37;4.97;;;;;;;;;;5022220;28;20412;-85
2022/04/28 12:02:06;;;;;;;5.77;4.40;;;;;;;;;;5023447;28;20403;-85
2022/04/28 12:04:32;;;;;;;5.63;4.00;;;;;;;;;;5024502;28;20414;-85
2022/04/28 12:06:59;;;;;;;8.73;5.30;;;;;;;;;;5007760;28;20440;-87
2022/04/28 12:15:19;;;;;;;5.50;4.70;;;;;;;;;;4956653;29;20469;-87
2022/04/28 12:20:55;;;;;;;6.97;4.17;;;;;;;;;;5026963;28;20391;-87
2022/04/28 12:23:28;;;;;;;7.70;4.80;;;;;;;;;;5026256;28;20440;-86
2022/04/28 12:25:57;;;;;;;6.00;4.80;;;;;;;;;;5022404;28;20457;-86
2022/04/28 12:28:29;;;;;;;6.60;4.73;;;;;;;;;;5012500;28;20463;-87
2022/04/28 12:30:55;;;;;;;5.83;4.93;;;;;;;;;;5015297;28;20589;-85
2022/04/28 12:33:21;;;;;;;6.27;4.50;;;;;;;;;;5024992;28;20454;-86
2022/04/28 12:35:47;;;;;;;5.57;4.40;;;;;;;;;;5017498;28;20474;-86
2022/04/28 12:38:23;;;;;;;6.87;4.40;;;;;;;;;;5009924;28;20428;-85
2022/04/28 12:40:49;;;;;;;5.67;4.10;;;;;;;;;;5007551;28;20384;-86
2022/04/28 12:43:35;;;;;;;6.10;5.13;;;;;;;;;;5009470;28;20483;-86
2022/04/28 12:46:01;;;;;;;5.50;4.40;;;;;;;;;;5008531;28;20411;-85
2022/04/28 12:48:29;;;;;;;7.80;4.90;;;;;;;;;;5025275;28;20797;-85
2022/04/28 12:51:08;;;;;;;5.30;4.50;;;;;;;;;;5026225;28;20458;-85
2022/04/28 12:53:35;;;;;;;5.17;4.20;;;;;;;;;;5025477;28;20479;-87
2022/04/28 12:56:03;;;;;;;5.50;4.70;;;;;;;;;;5024407;28;20857;-84
2022/04/28 12:58:29;;;;;;;6.20;5.10;;;;;;;;;;5029848;28;20418;-82
2022/04/28 13:00:55;;;;;;;6.33;5.03;;;;;;;;;;5035111;28;21050;-85
2022/04/28 13:03:28;;;;;;;5.57;4.67;;;;;;;;;;5022517;28;20412;-84
2022/04/28 13:05:54;;;;;;;8.43;4.80;;;;;;;;;;5030560;28;20884;-85
2022/04/28 13:08:20;;;;;;;6.20;5.00;;;;;;;;;;5077322;22;20484;-81
2022/04/28 13:10:46;;;;;;;6.53;4.07;;;;;;;;;;5067118;28;20408;-81
2022/04/28 13:13:12;;;;;;;5.67;4.40;;;;;;;;;;5086664;28;20393;-81
2022/04/28 13:15:38;;;;;;;7.23;4.63;;;;;;;;;;5086714;28;20451;-82
2022/04/28 13:18:04;;;;;;;4.40;3.97;;;;;;;;;;5077694;28;20426;-81
2022/04/28 13:20:31;;;;;;;9.73;4.70;;;;;;;;;;5067045;28;20405;-82
2022/04/28 13:22:57;;;;;;;10.73;4.80;;;;;;;;;;5066341;28;20446;-81
2022/04/28 13:25:23;;;;;;;10.73;5.00;;;;;;;;;;5065888;28;20410;-81
2022/04/28 13:27:49;;;;;;;5.70;4.73;;;;;;;;;;5066130;28;20527;-81
2022/04/28 13:30:16;;;;;;;7.30;5.60;;;;;;;;;;5066469;28;20416;-80
2022/04/28 13:32:42;;;;;;;7.03;4.73;;;;;;;;;;5066544;28;20432;-80
2022/04/28 13:35:09;;;;;;;7.20;4.60;;;;;;;;;;5048003;28;20414;-81
2022/04/28 13:37:35;;;;;;;6.73;4.63;;;;;;;;;;5065543;28;20460;-80
2022/04/28 13:40:01;;;;;;;8.23;4.50;;;;;;;;;;5066448;28;20970;-81
2022/04/28 13:42:27;;;;;;;8.33;5.27;;;;;;;;;;5065870;28;20402;-81
2022/04/28 13:44:53;;;;;;;5.33;4.70;;;;;;;;;;5049456;28;20402;-81
2022/04/28 13:47:19;;;;;;;7.17;5.70;;;;;;;;;;5065112;28;20979;-81
2022/04/28 13:49:45;;;;;;;5.63;4.57;;;;;;;;;;5064765;28;20416;-82
2022/04/28 13:52:11;;;;;;;6.27;4.67;;;;;;;;;;5064160;28;20422;-81
2022/04/28 13:54:37;;;;;;;7.90;4.70;;;;;;;;;;5063178;28;20819;-81
2022/04/28 13:57:03;;;;;;;7.70;4.70;;;;;;;;;;5064031;28;20449;-81
2022/04/28 13:59:30;;;;;;;6.33;5.63;;;;;;;;;;5065793;28;20418;-82
2022/04/28 14:01:56;;;;;;;5.83;4.87;;;;;;;;;;5064202;28;20398;-81
2022/04/28 14:04:25;;;;;;;9.13;5.07;;;;;;;;;;5064230;28;20935;-82
2022/04/28 14:06:54;;;;;;;6.97;4.37;;;;;;;;;;5065229;28;20409;-82
2022/04/28 14:09:21;;;;;;;4.80;4.03;;;;;;;;;;5066747;28;20807;-82
2022/04/28 14:11:48;;;;;;;5.43;4.50;;;;;;;;;;5068021;28;20447;-82
2022/04/28 14:14:14;;;;;;;6.27;4.53;;;;;;;;;;5065702;28;20410;-82
2022/04/28 14:16:40;;;;;;;5.63;4.20;;;;;;;;;;5065510;28;20448;-82
2022/04/28 14:19:06;;;;;;;5.77;4.53;;;;;;;;;;5065714;28;20422;-82
2022/04/28 14:21:33;;;;;;;10.23;5.60;;;;;;;;;;5066618;28;20417;-82
2022/04/28 14:23:59;;;;;;;5.97;4.30;;;;;;;;;;5066085;28;20436;-82
2022/04/28 14:26:25;;;;;;;8.40;5.40;;;;;;;;;;5065839;28;20409;-82
2022/04/28 14:28:51;;;;;;;5.30;4.70;;;;;;;;;;5065474;28;20436;-82
2022/04/28 14:31:18;;;;;;;7.00;5.20;;;;;;;;;;5068091;28;20409;-82
2022/04/28 14:33:44;;;;;;;6.60;5.37;;;;;;;;;;5069371;28;20408;-82
2022/04/28 14:36:10;;;;;;;7.40;5.33;;;;;;;;;;5068763;28;20456;-82
2022/04/28 14:38:37;;;;;;;10.17;5.17;;;;;;;;;;5070104;28;20421;-82
2022/04/28 14:41:03;;;;;;;7.23;5.17;;;;;;;;;;5069247;28;20409;-82
2022/04/28 14:43:29;;;;;;;6.87;5.13;;;;;;;;;;5068599;28;20397;-82
2022/04/28 14:45:55;;;;;;;9.30;5.70;;;;;;;;;;5068670;28;20423;-82
2022/04/28 14:48:21;;;;;;;4.90;4.40;;;;;;;;;;5069720;28;20489;-82
2022/04/28 14:53:35;;;;;;;6.07;5.03;;;;;;;;;;5069083;28;20385;-82
2022/04/28 14:56:01;;;;;;;5.60;4.40;;;;;;;;;;5066268;28;20448;-82
2022/04/28 14:58:28;;;;;;;5.30;3.90;;;;;;;;;;5073628;28;20425;-81
2022/04/28 15:00:54;;;;;;;6.53;4.10;;;;;;;;;;5078203;28;20377;-79
2022/04/28 15:03:20;;;;;;;5.10;3.93;;;;;;;;;;5077764;28;20405;-81
2022/04/28 15:05:46;;;;;;;5.17;4.47;;;;;;;;;;5077655;28;20397;-81
2022/04/28 15:08:12;;;;;;;8.03;4.87;;;;;;;;;;5060021;28;20441;-80
2022/04/28 15:10:41;;;;;;;6.00;4.60;;;;;;;;;;5078389;28;20406;-80
2022/04/28 15:13:08;;;;;;;6.07;4.10;;;;;;;;;;5071134;28;20420;-81